Batavia, Argentina
Current Conditions -  °F | °C
As of 7:00 AM on Tuesday 21 Oct 2014 (Local Time) from SAOC Reporting Station
Clear Clear  
Wind Chill: 64°   Ceiling: Unl
Heat Index: 64°   Visibility: 6mi
Dew Point: 52°   Wind: 12mph
Humidity: 64%   Direction: 340°NNW
Pressure: 30"   Gusts: NA
Location:  34.78°S, 65.68°W
Report Text: SAOC 211000Z 34010KT CAVOK 18/11 Q1016
Loading
Personal Weather Stations






























Interactive Weather Map
Tropical Storm Tracking
New forecast layout! Learn more

10-Day Weather Forecast

Advertisements
Track Severe Weather on mobile